Dayton, Idaho
Current Conditions -  °F | °C
As of 5:51 AM on Monday 22 Dec 2014 (Local Time) from KLGU Reporting Station
Overcast Overcast  
Wind Chill: 33°   Ceiling: 4200
Heat Index: 39°   Visibility: 10mi
Dew Point: 31°   Wind: 8mph
Humidity: 73%   Direction: 360°N
Pressure: 29.97"   Gusts: NA
Location:  42.11°N, 111.99°W
Report Text: KLGU 221251Z AUTO 36007KT 10SM BKN042 OVC055 04/M01 A2997 RMK AO2 SLP143 T00391006
Loading
Personal Weather Stations






























Interactive Weather Map New forecast layout! Learn more

10-Day Weather Forecast

Advertisements
Track Severe Weather on mobile